createdAt,value
2022-12-20T00:01:23.869Z,5.00
2022-12-20T00:03:51.909Z,4.60
2022-12-20T00:06:19.145Z,5.50
2022-12-20T00:08:46.393Z,4.60
2022-12-20T00:11:13.452Z,4.20
2022-12-20T00:13:40.416Z,5.30
2022-12-20T00:16:12.606Z,4.10
2022-12-20T00:18:40.377Z,4.30
2022-12-20T00:21:08.711Z,5.20
2022-12-20T00:23:36.307Z,2.90
2022-12-20T00:26:07.839Z,3.80
2022-12-20T00:28:35.202Z,3.50
2022-12-20T00:31:03.533Z,4.60
2022-12-20T00:33:35.013Z,2.90
2022-12-20T00:36:01.978Z,3.30
2022-12-20T00:38:28.917Z,3.80
2022-12-20T00:41:10.373Z,4.70
2022-12-20T00:43:37.689Z,4.20
2022-12-20T00:46:05.095Z,4.50
2022-12-20T00:48:33.317Z,4.80
2022-12-20T00:51:01.286Z,3.60
2022-12-20T00:53:28.480Z,5.20
2022-12-20T00:55:55.562Z,4.80
2022-12-20T00:58:22.513Z,2.80
2022-12-20T01:00:55.935Z,5.10
2022-12-20T01:03:24.912Z,4.40
2022-12-20T01:06:02.380Z,4.90
2022-12-20T01:08:30.366Z,3.50
2022-12-20T01:11:09.244Z,4.30
2022-12-20T01:13:37.594Z,2.90
2022-12-20T01:16:09.934Z,4.00
2022-12-20T01:18:37.580Z,3.70
2022-12-20T01:21:05.822Z,2.70
2022-12-20T01:23:32.723Z,3.10
2022-12-20T01:26:00.771Z,3.20
2022-12-20T01:28:28.378Z,2.10
2022-12-20T01:30:55.758Z,3.80
2022-12-20T01:33:22.802Z,2.00
2022-12-20T01:35:56.924Z,3.00
2022-12-20T01:38:23.964Z,3.30
2022-12-20T01:40:51.132Z,2.70
2022-12-20T01:43:18.673Z,2.50
2022-12-20T01:45:47.196Z,3.20
2022-12-20T01:48:21.713Z,3.20
2022-12-20T01:50:48.722Z,3.50
2022-12-20T01:53:16.816Z,3.00
2022-12-20T01:55:43.843Z,2.30
2022-12-20T01:58:12.326Z,3.10
2022-12-20T02:00:39.437Z,2.50
2022-12-20T02:03:12.108Z,3.20
2022-12-20T02:05:41.245Z,2.10
2022-12-20T02:08:08.232Z,3.10
2022-12-20T02:11:07.639Z,2.80
2022-12-20T02:13:40.927Z,2.80
2022-12-20T02:19:12.776Z,2.50
2022-12-20T02:21:41.725Z,3.70
2022-12-20T02:24:34.929Z,3.20
2022-12-20T02:27:18.089Z,3.00
2022-12-20T02:30:18.789Z,3.20
2022-12-20T02:33:00.171Z,2.60
2022-12-20T02:35:29.780Z,2.20
2022-12-20T02:37:59.326Z,2.50
2022-12-20T02:40:31.773Z,2.40
2022-12-20T02:43:00.651Z,2.70
2022-12-20T02:45:34.130Z,1.30
2022-12-20T02:48:04.696Z,2.60
2022-12-20T02:50:38.811Z,1.60
2022-12-20T02:53:05.829Z,2.00
2022-12-20T02:55:48.126Z,2.00
2022-12-20T02:58:23.680Z,2.10
2022-12-20T03:00:50.828Z,1.80
2022-12-20T03:03:24.080Z,2.90
2022-12-20T03:05:53.974Z,2.10
2022-12-20T03:08:23.060Z,2.60
2022-12-20T03:10:50.817Z,3.10
2022-12-20T03:13:17.804Z,2.60
2022-12-20T03:15:51.441Z,2.40
2022-12-20T03:18:18.575Z,2.30
2022-12-20T03:20:45.561Z,1.90
2022-12-20T03:23:12.469Z,1.70
2022-12-20T03:25:39.422Z,2.10
2022-12-20T03:28:06.972Z,2.70
2022-12-20T03:30:33.973Z,2.40
2022-12-20T03:33:01.207Z,2.50
2022-12-20T03:35:28.212Z,2.60
2022-12-20T03:37:56.564Z,2.90
2022-12-20T03:40:23.591Z,3.40
2022-12-20T03:42:50.594Z,3.30
2022-12-20T03:45:17.774Z,2.10
2022-12-20T03:47:45.228Z,3.00
2022-12-20T03:50:12.857Z,2.60
2022-12-20T03:52:40.225Z,1.60
2022-12-20T03:55:08.194Z,1.90
2022-12-20T03:57:40.617Z,2.40
2022-12-20T04:00:17.122Z,2.10
2022-12-20T04:02:46.629Z,2.10
2022-12-20T04:05:14.229Z,1.80
2022-12-20T04:07:41.254Z,1.90
2022-12-20T04:10:09.274Z,2.30
2022-12-20T04:12:36.269Z,2.60
2022-12-20T04:15:04.826Z,1.90
2022-12-20T04:17:31.742Z,2.80
2022-12-20T04:19:59.029Z,2.20
2022-12-20T04:22:26.472Z,3.30
2022-12-20T04:24:59.304Z,2.70
2022-12-20T04:27:31.331Z,3.60
2022-12-20T04:29:59.004Z,2.70
2022-12-20T04:32:26.592Z,2.90
2022-12-20T04:34:53.510Z,2.90
2022-12-20T04:37:20.930Z,3.20
2022-12-20T04:39:51.932Z,3.80
2022-12-20T04:42:21.225Z,4.00
2022-12-20T04:44:48.857Z,4.20
2022-12-20T04:47:17.750Z,2.70
2022-12-20T04:49:44.605Z,3.00
2022-12-20T04:52:30.586Z,2.10
2022-12-20T04:54:57.481Z,2.10
2022-12-20T04:57:27.848Z,3.10
2022-12-20T04:59:54.911Z,3.40
2022-12-20T05:02:22.410Z,2.30
2022-12-20T05:04:52.207Z,2.80
2022-12-20T05:07:19.080Z,4.20
2022-12-20T05:09:50.812Z,2.90
2022-12-20T05:17:04.735Z,1.80
2022-12-20T05:19:32.515Z,2.10
2022-12-20T05:22:19.321Z,2.40
2022-12-20T05:25:19.140Z,2.60
2022-12-20T05:27:47.723Z,2.10
2022-12-20T05:30:16.617Z,2.80
2022-12-20T05:32:45.914Z,2.50
2022-12-20T05:35:13.397Z,1.90
2022-12-20T05:37:41.060Z,2.30
2022-12-20T05:40:14.430Z,2.60
2022-12-20T05:42:41.984Z,3.20
2022-12-20T05:45:12.911Z,1.80
2022-12-20T05:47:53.489Z,3.00
2022-12-20T05:50:21.060Z,2.20
2022-12-20T05:53:27.211Z,3.00
2022-12-20T05:55:57.121Z,3.10
2022-12-20T06:01:05.069Z,4.00
2022-12-20T06:03:35.432Z,3.10
2022-12-20T06:06:13.661Z,3.00
2022-12-20T06:08:43.272Z,3.60
2022-12-20T06:11:15.965Z,3.80
2022-12-20T06:13:51.673Z,2.90
2022-12-20T06:16:21.846Z,2.50
2022-12-20T06:18:50.862Z,2.90
2022-12-20T06:21:18.379Z,2.70
2022-12-20T06:23:46.045Z,4.00
2022-12-20T06:26:15.053Z,3.20
2022-12-20T06:28:52.992Z,3.10
2022-12-20T06:31:30.064Z,3.00
2022-12-20T06:33:58.493Z,3.10
2022-12-20T06:36:30.866Z,3.50
2022-12-20T06:38:58.342Z,4.20
2022-12-20T06:41:26.911Z,4.50
2022-12-20T06:43:56.131Z,4.00
2022-12-20T06:46:23.712Z,3.30
2022-12-20T06:48:51.433Z,4.10
2022-12-20T06:51:19.296Z,3.90
2022-12-20T06:53:47.473Z,3.20
2022-12-20T06:56:14.937Z,2.20
2022-12-20T06:58:42.383Z,2.50
2022-12-20T07:01:09.995Z,3.50
2022-12-20T07:03:39.056Z,2.40
2022-12-20T07:06:07.104Z,4.00
2022-12-20T07:08:34.558Z,4.50
2022-12-20T07:11:06.961Z,4.30
2022-12-20T07:13:34.862Z,4.50
2022-12-20T07:16:03.399Z,2.30
2022-12-20T07:18:33.198Z,2.20
2022-12-20T07:21:01.779Z,3.00
2022-12-20T07:23:29.254Z,2.50
2022-12-20T07:25:57.203Z,3.40
2022-12-20T07:28:26.169Z,1.80
2022-12-20T07:30:54.573Z,3.70
2022-12-20T07:33:24.229Z,2.60
2022-12-20T07:35:54.836Z,1.40
2022-12-20T07:38:22.500Z,3.50
2022-12-20T07:40:49.926Z,3.50
2022-12-20T07:43:19.036Z,1.70
2022-12-20T07:45:47.885Z,2.20
2022-12-20T07:48:19.781Z,2.50
2022-12-20T07:50:49.186Z,3.30
2022-12-20T07:53:16.753Z,2.60
2022-12-20T07:55:44.192Z,2.10
2022-12-20T07:58:12.379Z,3.70
2022-12-20T08:00:39.934Z,2.60
2022-12-20T08:03:19.173Z,2.60
2022-12-20T09:43:31.852Z,3.20
2022-12-20T09:46:03.687Z,2.10
2022-12-20T09:48:35.543Z,3.40
2022-12-20T09:51:15.389Z,5.90
2022-12-20T09:53:55.661Z,3.50
2022-12-20T09:56:26.485Z,3.70
2022-12-20T10:06:58.191Z,4.60
2022-12-20T10:09:56.983Z,3.60
2022-12-20T10:13:06.123Z,3.10
2022-12-20T10:15:34.636Z,5.50
2022-12-20T10:18:21.195Z,5.30
2022-12-20T10:20:58.609Z,4.40
2022-12-20T10:23:33.637Z,5.30
2022-12-20T10:26:01.163Z,3.60
2022-12-20T10:28:30.727Z,3.80
2022-12-20T10:31:02.987Z,3.40
2022-12-20T10:33:31.482Z,4.50
2022-12-20T10:36:24.374Z,4.30
2022-12-20T10:38:56.343Z,4.60
2022-12-20T10:41:28.287Z,4.10
2022-12-20T10:44:06.208Z,4.00
2022-12-20T10:46:42.145Z,3.90
2022-12-20T10:49:31.560Z,4.10
2022-12-20T10:52:09.536Z,5.10
2022-12-20T10:54:38.356Z,4.50
2022-12-20T10:57:26.015Z,3.40
2022-12-20T10:59:55.153Z,4.00
2022-12-20T11:02:25.120Z,3.80
2022-12-20T11:05:02.940Z,4.30
2022-12-20T11:07:32.628Z,4.50
2022-12-20T11:10:27.165Z,4.70
2022-12-20T11:12:54.546Z,4.70
2022-12-20T11:15:32.749Z,5.00
2022-12-20T11:18:34.280Z,3.70
2022-12-20T11:21:01.425Z,4.50
2022-12-20T11:23:58.382Z,3.90
2022-12-20T11:26:36.737Z,6.70
2022-12-20T11:29:08.553Z,2.80
2022-12-20T11:31:59.707Z,5.30
2022-12-20T11:34:40.651Z,4.40
2022-12-20T11:37:08.301Z,4.70
2022-12-20T11:39:42.204Z,6.50
2022-12-20T11:42:29.213Z,5.70
2022-12-20T11:45:10.169Z,7.30
2022-12-20T14:12:35.979Z,6.30
2022-12-20T14:15:21.719Z,4.90
2022-12-20T14:17:48.777Z,6.10
2022-12-20T14:20:17.319Z,5.70
2022-12-20T14:23:05.971Z,5.90
2022-12-20T14:25:40.071Z,5.30
2022-12-20T14:28:27.606Z,4.70
2022-12-20T14:30:56.392Z,5.00
2022-12-20T14:33:40.217Z,5.10
2022-12-20T15:28:55.501Z,5.20
2022-12-20T15:31:32.842Z,6.50
2022-12-20T15:34:30.529Z,4.10
2022-12-20T15:36:59.731Z,6.30
2022-12-20T15:39:26.916Z,3.90
2022-12-20T15:41:54.188Z,6.10
2022-12-20T15:44:25.990Z,6.10
2022-12-20T15:46:53.584Z,5.00
2022-12-20T15:49:25.479Z,8.20
2022-12-20T15:51:53.275Z,3.90
2022-12-20T15:54:28.952Z,6.60
2022-12-20T15:56:57.009Z,5.20
2022-12-20T15:59:58.413Z,6.00
2022-12-20T16:02:23.205Z,5.80
2022-12-20T16:04:51.546Z,5.50
2022-12-20T16:07:18.884Z,6.20
2022-12-20T16:09:46.129Z,6.90
2022-12-20T16:12:18.937Z,5.50
2022-12-20T16:14:46.078Z,7.60
2022-12-20T16:17:13.961Z,6.80
2022-12-20T16:19:42.102Z,5.30
2022-12-20T16:22:16.042Z,4.60
2022-12-20T16:24:43.774Z,5.90
2022-12-20T16:27:11.048Z,5.60
2022-12-20T16:29:38.381Z,6.10
2022-12-20T16:32:15.093Z,7.80
2022-12-20T16:34:42.602Z,7.80
2022-12-20T16:37:11.303Z,6.90
2022-12-20T16:39:38.536Z,5.30
2022-12-20T16:42:17.752Z,5.50
2022-12-20T16:44:45.866Z,6.80
2022-12-20T16:47:13.871Z,7.00
2022-12-20T16:49:47.164Z,6.70
2022-12-20T16:52:17.742Z,7.00
2022-12-20T16:54:44.891Z,7.50
2022-12-20T16:57:12.147Z,6.20
2022-12-20T16:59:39.531Z,5.30
2022-12-20T17:02:23.519Z,8.10
2022-12-20T17:04:51.202Z,7.40
2022-12-20T17:07:18.374Z,5.70
2022-12-20T17:12:31.322Z,7.30
2022-12-20T17:14:58.440Z,5.10
2022-12-20T17:17:25.938Z,6.00
2022-12-20T17:19:53.363Z,5.60
2022-12-20T17:22:23.527Z,5.70
2022-12-20T17:24:50.966Z,5.90
2022-12-20T17:27:18.498Z,5.60
2022-12-20T17:29:45.635Z,5.70
2022-12-20T17:32:20.485Z,7.80
2022-12-20T17:34:47.423Z,5.10
2022-12-20T17:37:14.656Z,6.80
2022-12-20T17:39:42.325Z,6.70
2022-12-20T17:42:12.551Z,5.60
2022-12-20T17:44:40.066Z,7.20
2022-12-20T17:47:07.598Z,7.10
2022-12-20T17:49:34.806Z,5.20
2022-12-20T17:52:01.867Z,7.70
2022-12-20T17:54:36.623Z,6.70
2022-12-20T17:57:14.663Z,6.60
2022-12-20T17:59:42.042Z,7.30
2022-12-20T18:02:23.652Z,6.90
2022-12-20T18:04:51.147Z,6.90
2022-12-20T18:07:18.859Z,6.40
2022-12-20T18:09:48.172Z,6.00
2022-12-20T18:12:16.093Z,5.90
2022-12-20T18:14:43.125Z,8.00
2022-12-20T18:17:10.397Z,5.80
2022-12-20T18:19:38.087Z,6.50
2022-12-20T18:22:06.074Z,8.10
2022-12-20T18:24:33.301Z,7.60
2022-12-20T18:27:00.591Z,7.00
2022-12-20T18:29:29.251Z,7.80
2022-12-20T18:31:56.849Z,5.20
2022-12-20T18:34:25.549Z,5.40
2022-12-20T18:36:52.840Z,6.80
2022-12-20T18:39:20.088Z,6.00
2022-12-20T18:41:47.995Z,7.70
2022-12-20T18:44:15.021Z,7.40
2022-12-20T18:46:42.075Z,7.20
2022-12-20T18:49:10.396Z,7.00
2022-12-20T18:51:40.547Z,5.70
2022-12-20T18:54:09.543Z,5.50
2022-12-20T18:56:37.644Z,8.10
2022-12-20T18:59:11.420Z,7.20
2022-12-20T19:01:40.399Z,6.60
2022-12-20T19:04:08.126Z,4.70
2022-12-20T19:06:36.239Z,6.10
2022-12-20T19:09:06.882Z,7.90
2022-12-20T19:11:34.652Z,5.40
2022-12-20T19:14:03.076Z,6.90
2022-12-20T19:16:32.252Z,6.30
2022-12-20T19:19:00.495Z,5.90
2022-12-20T19:21:29.047Z,6.30
2022-12-20T19:23:57.744Z,8.00
2022-12-20T19:26:29.326Z,8.40
2022-12-20T19:28:56.999Z,5.30
2022-12-20T19:31:31.538Z,6.20
2022-12-20T19:34:03.993Z,6.60
2022-12-20T19:36:40.236Z,6.70
2022-12-20T19:39:11.353Z,4.70
2022-12-20T19:41:38.392Z,6.10
2022-12-20T19:44:06.810Z,7.20
2022-12-20T19:46:34.503Z,6.90
2022-12-20T19:49:04.829Z,7.50
2022-12-20T19:51:32.244Z,6.20
2022-12-20T19:53:59.684Z,6.60
2022-12-20T19:56:29.710Z,6.70
2022-12-20T19:58:57.094Z,7.00
2022-12-20T20:01:26.962Z,5.10
2022-12-20T20:03:55.153Z,4.30
2022-12-20T20:06:22.572Z,6.30
2022-12-20T20:08:49.975Z,8.10
2022-12-20T20:11:18.551Z,9.20
2022-12-20T20:13:46.162Z,8.00
2022-12-20T20:16:18.429Z,6.50
2022-12-20T20:18:50.242Z,6.90
2022-12-20T20:21:22.070Z,7.00
2022-12-20T20:23:50.282Z,6.00
2022-12-20T20:26:20.082Z,7.40
2022-12-20T20:28:47.155Z,6.70
2022-12-20T20:31:15.171Z,4.60
2022-12-20T20:33:42.439Z,6.10
2022-12-20T20:36:12.067Z,7.30
2022-12-20T20:38:39.927Z,8.00
2022-12-20T20:41:07.548Z,5.70
2022-12-20T20:43:36.493Z,7.20
2022-12-20T20:46:07.335Z,7.30
2022-12-20T20:48:35.329Z,17.60
2022-12-20T20:51:03.342Z,9.80
2022-12-20T20:53:33.781Z,9.70
2022-12-20T20:56:05.101Z,9.40
2022-12-20T20:58:32.800Z,7.10
2022-12-20T21:01:01.067Z,8.60
2022-12-20T21:03:28.786Z,5.70
2022-12-20T21:08:44.121Z,8.10
2022-12-20T21:11:11.642Z,7.00
2022-12-20T21:13:39.095Z,6.30
2022-12-20T21:16:11.331Z,7.70
2022-12-20T21:18:38.350Z,7.60
2022-12-20T21:21:10.004Z,9.30
2022-12-20T21:23:37.817Z,8.40
2022-12-20T21:26:05.046Z,8.90
2022-12-20T21:28:32.485Z,8.50
2022-12-20T21:31:00.691Z,8.80
2022-12-20T21:33:28.577Z,5.60
2022-12-20T21:36:06.706Z,6.30
2022-12-20T21:38:35.732Z,7.20
2022-12-20T21:41:07.690Z,6.60
2022-12-20T21:43:34.757Z,6.40
2022-12-20T21:46:01.977Z,4.80
2022-12-20T21:48:29.668Z,6.40
2022-12-20T21:51:04.954Z,6.90
2022-12-20T21:53:32.234Z,7.90
2022-12-20T21:56:00.215Z,6.50
2022-12-20T21:58:28.277Z,7.20
2022-12-20T22:00:55.792Z,5.80
2022-12-20T22:03:23.421Z,4.60
2022-12-20T22:05:52.611Z,5.20
2022-12-20T22:08:20.041Z,6.20
2022-12-20T22:10:49.214Z,8.10
2022-12-20T22:13:16.389Z,7.20
2022-12-20T22:15:43.753Z,9.00
2022-12-20T22:18:10.894Z,7.20
2022-12-20T22:20:38.032Z,8.00
2022-12-20T22:23:05.236Z,8.50
2022-12-20T22:25:35.233Z,6.70
2022-12-20T22:28:03.346Z,4.20
2022-12-20T22:30:31.383Z,7.80
2022-12-20T22:32:58.408Z,6.90
2022-12-20T22:35:25.491Z,5.70
2022-12-20T22:37:52.897Z,5.50
2022-12-20T22:40:22.602Z,8.90
2022-12-20T22:42:50.010Z,6.60
2022-12-20T22:45:17.114Z,8.10
2022-12-20T22:47:45.504Z,8.60
2022-12-20T22:50:12.952Z,6.00
2022-12-20T22:52:40.147Z,8.60
2022-12-20T22:55:09.300Z,6.20
2022-12-20T22:57:36.450Z,6.80
2022-12-20T23:00:06.301Z,5.40
2022-12-20T23:02:33.604Z,6.90
2022-12-20T23:05:00.763Z,6.60
2022-12-20T23:07:28.064Z,8.80
2022-12-20T23:09:55.472Z,6.90
2022-12-20T23:12:41.566Z,7.60
2022-12-20T23:15:31.369Z,7.80
2022-12-20T23:17:58.441Z,8.60
2022-12-20T23:20:45.821Z,8.70
2022-12-20T23:23:12.952Z,6.00
2022-12-20T23:25:41.475Z,6.10
2022-12-20T23:28:08.609Z,6.30
2022-12-20T23:30:35.886Z,7.20
2022-12-20T23:33:02.965Z,7.60
2022-12-20T23:35:31.059Z,7.30
2022-12-20T23:37:58.599Z,8.40
2022-12-20T23:40:25.706Z,6.80
2022-12-20T23:42:54.155Z,7.10
2022-12-20T23:45:21.132Z,8.70
2022-12-20T23:47:49.171Z,7.00
2022-12-20T23:50:16.421Z,6.30
2022-12-20T23:52:44.914Z,7.00
2022-12-20T23:55:13.131Z,5.80
2022-12-20T23:57:40.436Z,6.10
